createdAt,value
2019-01-28T00:00:30.988Z,1008.03
2019-01-28T00:01:30.992Z,1008.04
2019-01-28T00:02:31.003Z,1008.05
2019-01-28T00:03:31.001Z,1008.04
2019-01-28T00:04:31.009Z,1008.06
2019-01-28T00:05:31.011Z,1008.04
2019-01-28T00:06:31.018Z,1008.07
2019-01-28T00:07:31.022Z,1008.03
2019-01-28T00:08:31.027Z,1008.03
2019-01-28T00:09:31.033Z,1008.01
2019-01-28T00:10:31.038Z,1008.00
2019-01-28T00:11:31.042Z,1008.04
2019-01-28T00:12:31.049Z,1008.02
2019-01-28T00:13:31.053Z,1007.99
2019-01-28T00:14:31.059Z,1007.99
2019-01-28T00:15:31.063Z,1007.98
2019-01-28T00:16:31.076Z,1008.00
2019-01-28T00:17:31.073Z,1008.00
2019-01-28T00:18:31.078Z,1007.94
2019-01-28T00:19:31.083Z,1007.95
2019-01-28T00:20:31.098Z,1007.94
2019-01-28T00:21:31.093Z,1007.94
2019-01-28T00:22:31.099Z,1007.91
2019-01-28T00:23:31.104Z,1007.92
2019-01-28T00:24:31.109Z,1007.92
2019-01-28T00:25:31.114Z,1007.91
2019-01-28T00:26:31.121Z,1007.92
2019-01-28T00:27:31.122Z,1007.91
2019-01-28T00:28:31.129Z,1007.90
2019-01-28T00:29:31.135Z,1007.93
2019-01-28T00:30:31.140Z,1007.91
2019-01-28T00:31:31.144Z,1007.91
2019-01-28T00:32:31.151Z,1007.87
2019-01-28T00:33:31.155Z,1007.88
2019-01-28T00:34:31.160Z,1007.90
2019-01-28T00:35:31.164Z,1007.83
2019-01-28T00:36:31.168Z,1007.82
2019-01-28T00:37:31.175Z,1007.84
2019-01-28T00:38:31.182Z,1007.85
2019-01-28T00:39:31.184Z,1007.82
2019-01-28T00:40:31.191Z,1007.83
2019-01-28T00:41:31.196Z,1007.84
2019-01-28T00:42:31.201Z,1007.79
2019-01-28T00:43:31.205Z,1007.77
2019-01-28T00:44:31.210Z,1007.80
2019-01-28T00:45:31.216Z,1007.75
2019-01-28T00:46:31.223Z,1007.82
2019-01-28T00:47:31.225Z,1007.81
2019-01-28T00:48:31.231Z,1007.83
2019-01-28T00:49:31.236Z,1007.83
2019-01-28T00:50:31.240Z,1007.85
2019-01-28T00:51:31.246Z,1007.89
2019-01-28T00:52:31.249Z,1007.82
2019-01-28T00:53:31.255Z,1007.85
2019-01-28T00:54:31.262Z,1007.85
2019-01-28T00:55:31.268Z,1007.83
2019-01-28T00:56:31.271Z,1007.85
2019-01-28T00:57:31.275Z,1007.87
2019-01-28T00:58:31.332Z,1007.82
2019-01-28T00:59:31.286Z,1007.85
2019-01-28T01:00:31.296Z,1007.85
2019-01-28T01:01:31.296Z,1007.88
2019-01-28T01:02:31.302Z,1007.91
2019-01-28T01:03:31.305Z,1007.86
2019-01-28T01:04:31.311Z,1007.87
2019-01-28T01:05:31.317Z,1007.89
2019-01-28T01:06:31.323Z,1007.90
2019-01-28T01:07:31.327Z,1007.91
2019-01-28T01:08:31.332Z,1007.90
2019-01-28T01:09:31.337Z,1007.89
2019-01-28T01:10:31.343Z,1007.91
2019-01-28T01:11:31.347Z,1007.90
2019-01-28T01:12:31.353Z,1007.89
2019-01-28T01:13:31.408Z,1007.89
2019-01-28T01:14:31.531Z,1007.89
2019-01-28T01:15:31.367Z,1007.89
2019-01-28T01:16:31.376Z,1007.92
2019-01-28T01:17:31.378Z,1007.92
2019-01-28T01:18:31.382Z,1007.93
2019-01-28T01:19:31.388Z,1007.97
2019-01-28T01:20:31.393Z,1007.91
2019-01-28T01:21:31.401Z,1007.96
2019-01-28T01:22:31.404Z,1007.93
2019-01-28T01:23:31.408Z,1007.89
2019-01-28T01:24:31.413Z,1007.90
2019-01-28T01:25:31.419Z,1007.92
2019-01-28T01:26:31.424Z,1007.91
2019-01-28T01:27:31.428Z,1007.84
2019-01-28T01:28:31.432Z,1007.85
2019-01-28T01:29:31.439Z,1007.86
2019-01-28T01:30:31.444Z,1007.82
2019-01-28T01:31:31.452Z,1007.84
2019-01-28T01:32:31.454Z,1007.81
2019-01-28T01:33:31.460Z,1007.73
2019-01-28T01:34:31.463Z,1007.74
2019-01-28T01:35:31.479Z,1007.73
2019-01-28T01:36:31.599Z,1007.73
2019-01-28T01:37:31.481Z,1007.73
2019-01-28T01:38:31.485Z,1007.75
2019-01-28T01:39:31.489Z,1007.72
2019-01-28T01:40:31.494Z,1007.71
2019-01-28T01:41:31.500Z,1007.72
2019-01-28T01:42:31.506Z,1007.69
2019-01-28T01:43:31.508Z,1007.66
2019-01-28T01:44:31.515Z,1007.65
2019-01-28T01:45:31.519Z,1007.70
2019-01-28T01:46:31.526Z,1007.65
2019-01-28T01:47:31.529Z,1007.64
2019-01-28T01:48:31.534Z,1007.60
2019-01-28T01:49:31.541Z,1007.62
2019-01-28T01:50:31.544Z,1007.63
2019-01-28T01:51:31.550Z,1007.64
2019-01-28T01:52:31.555Z,1007.64
2019-01-28T01:53:31.559Z,1007.66
2019-01-28T01:54:31.565Z,1007.63
2019-01-28T01:55:31.568Z,1007.65
2019-01-28T01:56:31.575Z,1007.62
2019-01-28T01:57:31.582Z,1007.61
2019-01-28T01:58:31.586Z,1007.62
2019-01-28T01:59:31.590Z,1007.62
2019-01-28T02:00:31.595Z,1007.59
2019-01-28T02:01:31.600Z,1007.61
2019-01-28T02:02:33.399Z,1007.59
2019-01-28T02:03:31.610Z,1007.63
2019-01-28T02:04:31.615Z,1007.59
2019-01-28T02:05:31.620Z,1007.64
2019-01-28T02:06:31.626Z,1007.63
2019-01-28T02:07:31.629Z,1007.66
2019-01-28T02:08:31.637Z,1007.58
2019-01-28T02:09:31.640Z,1007.56
2019-01-28T02:10:31.647Z,1007.52
2019-01-28T02:11:31.650Z,1007.52
2019-01-28T02:12:31.654Z,1007.60
2019-01-28T02:13:31.661Z,1007.57
2019-01-28T02:14:31.666Z,1007.59
2019-01-28T02:15:31.670Z,1007.47
2019-01-28T02:16:31.676Z,1007.51
2019-01-28T02:17:31.683Z,1007.52
2019-01-28T02:18:31.687Z,1007.51
2019-01-28T02:19:31.690Z,1007.61
2019-01-28T02:20:31.698Z,1007.58
2019-01-28T02:21:31.700Z,1007.48
2019-01-28T02:22:31.706Z,1007.47
2019-01-28T02:23:31.711Z,1007.45
2019-01-28T02:24:31.717Z,1007.46
2019-01-28T02:25:31.721Z,1007.49
2019-01-28T02:26:31.731Z,1007.52
2019-01-28T02:27:31.731Z,1007.52
2019-01-28T02:28:31.734Z,1007.57
2019-01-28T02:29:31.740Z,1007.55
2019-01-28T02:30:31.747Z,1007.54
2019-01-28T02:31:31.753Z,1007.51
2019-01-28T02:32:31.757Z,1007.56
2019-01-28T02:33:31.762Z,1007.52
2019-01-28T02:34:31.766Z,1007.51
2019-01-28T02:35:31.771Z,1007.49
2019-01-28T02:36:31.776Z,1007.48
2019-01-28T02:37:31.780Z,1007.47
2019-01-28T02:38:31.788Z,1007.50
2019-01-28T02:39:31.792Z,1007.50
2019-01-28T02:40:31.795Z,1007.49
2019-01-28T02:41:31.804Z,1007.52
2019-01-28T02:42:31.807Z,1007.48
2019-01-28T02:43:31.812Z,1007.50
2019-01-28T02:44:31.818Z,1007.45
2019-01-28T02:45:31.822Z,1007.43
2019-01-28T02:46:31.828Z,1007.43
2019-01-28T02:47:31.831Z,1007.41
2019-01-28T02:48:31.838Z,1007.40
2019-01-28T02:49:31.843Z,1007.39
2019-01-28T02:50:31.848Z,1007.38
2019-01-28T02:51:31.855Z,1007.38
2019-01-28T02:52:31.856Z,1007.38
2019-01-28T02:53:31.862Z,1007.42
2019-01-28T02:54:31.866Z,1007.35
2019-01-28T02:55:31.870Z,1007.39
2019-01-28T02:56:31.877Z,1007.37
2019-01-28T02:57:31.886Z,1007.36
2019-01-28T02:58:31.900Z,1007.38
2019-01-28T02:59:31.894Z,1007.30
2019-01-28T03:00:31.897Z,1007.31
2019-01-28T03:01:31.903Z,1007.32
2019-01-28T03:02:31.909Z,1007.33
2019-01-28T03:03:31.914Z,1007.33
2019-01-28T03:04:31.918Z,1007.31
2019-01-28T03:05:31.924Z,1007.29
2019-01-28T03:06:31.926Z,1007.30
2019-01-28T03:07:31.932Z,1007.30
2019-01-28T03:08:31.938Z,1007.25
2019-01-28T03:09:31.940Z,1007.22
2019-01-28T03:10:31.949Z,1007.23
2019-01-28T03:11:31.951Z,1007.18
2019-01-28T03:12:31.957Z,1007.18
2019-01-28T03:13:31.962Z,1007.16
2019-01-28T03:14:31.969Z,1007.15
2019-01-28T03:15:31.976Z,1007.17
2019-01-28T03:16:31.978Z,1007.16
2019-01-28T03:17:31.983Z,1007.14
2019-01-28T03:18:31.988Z,1007.11
2019-01-28T03:19:31.997Z,1007.15
2019-01-28T03:20:31.997Z,1007.11
2019-01-28T03:21:32.102Z,1007.12
2019-01-28T03:22:32.010Z,1007.12
2019-01-28T03:23:32.053Z,1007.16
2019-01-28T03:24:32.026Z,1007.12
2019-01-28T03:25:32.024Z,1007.11
2019-01-28T03:26:32.028Z,1007.10
2019-01-28T03:27:32.033Z,1007.08
2019-01-28T03:28:32.039Z,1007.11
2019-01-28T03:29:32.042Z,1007.06
2019-01-28T03:30:32.049Z,1007.07
2019-01-28T03:31:32.054Z,1007.05
2019-01-28T03:32:32.060Z,1007.03
2019-01-28T03:33:32.083Z,1006.98
2019-01-28T03:34:32.067Z,1007.00
2019-01-28T03:35:32.071Z,1007.01
2019-01-28T03:36:32.079Z,1006.98
2019-01-28T03:37:32.081Z,1006.97
2019-01-28T03:38:32.088Z,1007.01
2019-01-28T03:39:32.091Z,1006.99
2019-01-28T03:40:32.098Z,1006.96
2019-01-28T03:41:32.108Z,1006.99
2019-01-28T03:42:32.108Z,1006.98
2019-01-28T03:43:32.112Z,1007.01
2019-01-28T03:44:32.121Z,1006.93
2019-01-28T03:45:32.124Z,1006.96
2019-01-28T03:46:32.127Z,1006.94
2019-01-28T03:47:32.132Z,1006.94
2019-01-28T03:48:32.138Z,1006.93
2019-01-28T03:49:32.143Z,1006.90
2019-01-28T03:50:32.150Z,1006.92
2019-01-28T03:51:32.151Z,1006.95
2019-01-28T03:52:32.160Z,1006.93
2019-01-28T03:53:32.162Z,1006.87
2019-01-28T03:54:32.167Z,1006.86
2019-01-28T03:55:32.173Z,1006.88
2019-01-28T03:56:32.175Z,1006.85
2019-01-28T03:57:32.184Z,1006.86
2019-01-28T03:58:32.187Z,1006.83
2019-01-28T03:59:32.194Z,1006.81
2019-01-28T04:00:32.197Z,1006.79
2019-01-28T04:01:32.202Z,1006.77
2019-01-28T04:02:32.211Z,1006.71
2019-01-28T04:03:32.213Z,1006.75
2019-01-28T04:04:32.219Z,1006.77
2019-01-28T04:05:32.220Z,1006.70
2019-01-28T04:06:32.227Z,1006.68
2019-01-28T04:07:32.232Z,1006.69
2019-01-28T04:08:32.235Z,1006.66
2019-01-28T04:09:32.240Z,1006.63
2019-01-28T04:10:32.249Z,1006.62
2019-01-28T04:11:32.254Z,1006.61
2019-01-28T04:12:32.256Z,1006.56
2019-01-28T04:13:32.261Z,1006.54
2019-01-28T04:14:32.268Z,1006.57
2019-01-28T04:15:32.609Z,1006.56
2019-01-28T04:16:32.275Z,1006.56
2019-01-28T04:17:32.283Z,1006.55
2019-01-28T04:18:32.288Z,1006.54
2019-01-28T04:19:32.292Z,1006.51
2019-01-28T04:20:32.296Z,1006.54
2019-01-28T04:21:32.309Z,1006.51
2019-01-28T04:22:32.308Z,1006.51
2019-01-28T04:23:32.404Z,1006.47
2019-01-28T04:24:32.316Z,1006.52
2019-01-28T04:25:32.324Z,1006.35
2019-01-28T04:26:32.328Z,1006.46
2019-01-28T04:27:32.333Z,1006.49
2019-01-28T04:28:32.338Z,1006.52
2019-01-28T04:29:32.344Z,1006.46
2019-01-28T04:30:32.348Z,1006.50
2019-01-28T04:31:32.351Z,1006.43
2019-01-28T04:32:32.356Z,1006.43
2019-01-28T04:33:32.362Z,1006.39
2019-01-28T04:34:32.367Z,1006.38
2019-01-28T04:35:32.371Z,1006.39
2019-01-28T04:36:32.376Z,1006.36
2019-01-28T04:37:32.382Z,1006.38
2019-01-28T04:38:32.385Z,1006.38
2019-01-28T04:39:32.392Z,1006.35
2019-01-28T04:40:32.395Z,1006.36
2019-01-28T04:41:32.403Z,1006.36
2019-01-28T04:42:32.417Z,1006.29
2019-01-28T04:43:32.412Z,1006.29
2019-01-28T04:44:32.418Z,1006.32
2019-01-28T04:45:32.433Z,1006.28
2019-01-28T04:46:32.427Z,1006.25
2019-01-28T04:47:32.431Z,1006.27
2019-01-28T04:48:32.436Z,1006.21
2019-01-28T04:49:32.442Z,1006.17
2019-01-28T04:50:32.448Z,1006.20
2019-01-28T04:51:32.452Z,1006.22
2019-01-28T04:52:32.456Z,1006.18
2019-01-28T04:53:32.463Z,1006.16
2019-01-28T04:54:32.466Z,1006.19
2019-01-28T04:55:32.533Z,1006.24
2019-01-28T04:56:32.478Z,1006.14
2019-01-28T04:57:32.483Z,1006.16
2019-01-28T04:58:32.487Z,1006.17
2019-01-28T04:59:32.493Z,1006.14
2019-01-28T05:00:32.496Z,1006.09
2019-01-28T05:01:32.500Z,1006.12
2019-01-28T05:02:32.507Z,1006.13
2019-01-28T05:03:32.513Z,1006.07
2019-01-28T05:04:32.518Z,1006.03
2019-01-28T05:05:32.521Z,1006.06
2019-01-28T05:06:32.526Z,1006.16
2019-01-28T05:07:32.534Z,1006.04
2019-01-28T05:08:32.537Z,1006.07
2019-01-28T05:09:32.541Z,1006.07
2019-01-28T05:10:32.545Z,1006.06
2019-01-28T05:11:32.554Z,1006.03
2019-01-28T05:12:32.558Z,1006.03
2019-01-28T05:13:32.561Z,1006.12
2019-01-28T05:14:32.566Z,1006.13
2019-01-28T05:15:32.574Z,1006.15
2019-01-28T05:16:32.576Z,1006.11
2019-01-28T05:17:32.580Z,1006.10
2019-01-28T05:18:32.586Z,1006.05
2019-01-28T05:19:32.590Z,1006.10
2019-01-28T05:20:32.594Z,1006.04
2019-01-28T05:21:32.602Z,1006.10
2019-01-28T05:22:32.604Z,1006.02
2019-01-28T05:23:32.610Z,1006.06
2019-01-28T05:24:32.621Z,1006.04
2019-01-28T05:25:32.619Z,1006.05
2019-01-28T05:26:32.624Z,1006.02
2019-01-28T05:27:32.630Z,1006.05
2019-01-28T05:28:32.633Z,1006.02
2019-01-28T05:29:32.643Z,1006.07
2019-01-28T05:30:32.651Z,1005.97
2019-01-28T05:31:32.649Z,1005.99
2019-01-28T05:32:32.827Z,1006.08
2019-01-28T05:33:32.661Z,1005.99
2019-01-28T05:34:32.666Z,1005.98
2019-01-28T05:35:32.670Z,1005.97
2019-01-28T05:36:32.674Z,1005.92
2019-01-28T05:37:32.680Z,1006.00
2019-01-28T05:38:32.684Z,1006.03
2019-01-28T05:39:32.688Z,1005.98
2019-01-28T05:40:32.695Z,1005.99
2019-01-28T05:41:32.700Z,1005.96
2019-01-28T05:42:32.705Z,1006.01
2019-01-28T05:43:32.709Z,1006.03
2019-01-28T05:44:32.718Z,1006.00
2019-01-28T05:45:32.720Z,1006.03
2019-01-28T05:46:32.724Z,1006.01
2019-01-28T05:47:32.729Z,1006.04
2019-01-28T05:48:32.733Z,1005.96
2019-01-28T05:49:32.739Z,1006.02
2019-01-28T05:50:32.745Z,1005.84
2019-01-28T05:51:32.749Z,1006.06
2019-01-28T05:52:32.753Z,1005.87
2019-01-28T05:53:32.758Z,1005.97
2019-01-28T05:54:32.772Z,1005.97
2019-01-28T05:55:32.770Z,1005.95
2019-01-28T05:56:32.774Z,1005.89
2019-01-28T05:57:32.779Z,1006.01
2019-01-28T05:58:32.784Z,1005.92
2019-01-28T05:59:32.791Z,1005.95
2019-01-28T06:00:32.795Z,1005.93
2019-01-28T06:01:32.800Z,1006.03
2019-01-28T06:02:32.805Z,1005.97
2019-01-28T06:03:32.809Z,1005.99
2019-01-28T06:04:32.815Z,1006.01
2019-01-28T06:05:32.827Z,1005.97
2019-01-28T06:06:32.826Z,1005.95
2019-01-28T06:07:32.828Z,1005.95
2019-01-28T06:08:32.835Z,1005.98
2019-01-28T06:09:32.845Z,1005.94
2019-01-28T06:10:32.844Z,1005.99
2019-01-28T06:11:32.849Z,1006.01
2019-01-28T06:12:32.854Z,1006.01
2019-01-28T06:13:32.857Z,1005.98
2019-01-28T06:14:34.642Z,1005.94
2019-01-28T06:15:32.869Z,1005.96
2019-01-28T06:16:32.874Z,1005.98
2019-01-28T06:17:38.826Z,1005.92
2019-01-28T06:18:32.884Z,1005.94
2019-01-28T06:19:32.911Z,1005.96
2019-01-28T06:20:32.893Z,1005.94
2019-01-28T06:21:32.897Z,1005.92
2019-01-28T06:22:32.904Z,1005.97
2019-01-28T06:23:32.908Z,1005.93
2019-01-28T06:24:32.913Z,1005.96
2019-01-28T06:25:32.919Z,1005.91
2019-01-28T06:26:32.924Z,1005.91
2019-01-28T06:27:32.928Z,1005.89
2019-01-28T06:28:32.972Z,1006.09
2019-01-28T06:29:32.939Z,1005.89
2019-01-28T06:30:32.943Z,1005.90
2019-01-28T06:31:32.948Z,1005.99
2019-01-28T06:32:32.955Z,1005.95
2019-01-28T06:33:32.958Z,1005.97
2019-01-28T06:34:32.963Z,1005.88
2019-01-28T06:35:32.968Z,1005.95
2019-01-28T06:36:32.978Z,1005.88
2019-01-28T06:37:32.982Z,1005.92
2019-01-28T06:38:32.983Z,1005.85
2019-01-28T06:39:32.987Z,1005.87
2019-01-28T06:40:32.992Z,1005.94
2019-01-28T06:41:32.998Z,1006.06
2019-01-28T06:42:33.003Z,1005.97
2019-01-28T06:43:33.006Z,1006.03
2019-01-28T06:44:33.013Z,1006.00
2019-01-28T06:45:33.017Z,1006.03
2019-01-28T06:46:33.023Z,1005.99
2019-01-28T06:47:33.029Z,1006.11
2019-01-28T06:48:33.032Z,1006.00
2019-01-28T06:49:33.037Z,1006.08
2019-01-28T06:50:33.042Z,1006.17
2019-01-28T06:51:33.047Z,1006.05
2019-01-28T06:52:33.052Z,1006.06
2019-01-28T06:53:33.057Z,1006.06
2019-01-28T06:54:33.062Z,1006.01
2019-01-28T06:55:33.066Z,1005.99
2019-01-28T06:56:33.073Z,1006.07
2019-01-28T06:57:33.078Z,1005.99
2019-01-28T06:58:33.081Z,1006.01
2019-01-28T06:59:33.085Z,1006.02
2019-01-28T07:00:33.092Z,1006.00
2019-01-28T07:01:33.097Z,1005.99
2019-01-28T07:02:33.103Z,1005.95
2019-01-28T07:03:33.107Z,1005.93
2019-01-28T07:04:33.112Z,1005.87
2019-01-28T07:05:33.116Z,1006.01
2019-01-28T07:06:33.122Z,1005.92
2019-01-28T07:07:33.127Z,1005.94
2019-01-28T07:08:33.131Z,1005.93
2019-01-28T07:09:33.137Z,1005.91
2019-01-28T07:10:33.143Z,1005.91
2019-01-28T07:11:33.146Z,1005.92
2019-01-28T07:12:33.151Z,1005.86
2019-01-28T07:13:33.156Z,1005.97
2019-01-28T07:14:33.165Z,1005.88
2019-01-28T07:15:33.166Z,1005.96
2019-01-28T07:16:33.171Z,1005.90
2019-01-28T07:17:33.176Z,1005.87
2019-01-28T07:18:33.182Z,1005.84
2019-01-28T07:19:33.185Z,1005.95
2019-01-28T07:20:33.192Z,1005.83
2019-01-28T07:21:33.195Z,1005.86
2019-01-28T07:22:33.201Z,1005.82
2019-01-28T07:23:33.205Z,1005.86
2019-01-28T07:24:33.211Z,1005.85
2019-01-28T07:25:33.215Z,1005.82
2019-01-28T07:26:33.221Z,1005.77
2019-01-28T07:27:33.224Z,1005.73
2019-01-28T07:28:33.231Z,1005.85
2019-01-28T07:29:33.235Z,1005.84
2019-01-28T07:30:33.240Z,1005.81
2019-01-28T07:31:33.244Z,1005.79
2019-01-28T07:32:33.250Z,1005.78
2019-01-28T07:33:33.256Z,1005.84
2019-01-28T07:34:33.261Z,1005.80
2019-01-28T07:35:33.264Z,1005.64
2019-01-28T07:36:33.269Z,1005.85
2019-01-28T07:37:33.274Z,1005.72
2019-01-28T07:38:33.288Z,1005.78
2019-01-28T07:39:33.284Z,1005.78
2019-01-28T07:40:33.289Z,1005.75
2019-01-28T07:41:33.293Z,1005.79
2019-01-28T07:42:33.299Z,1005.71
2019-01-28T07:43:33.303Z,1005.65
2019-01-28T07:44:33.309Z,1005.77
2019-01-28T07:45:33.314Z,1005.72
2019-01-28T07:46:33.320Z,1005.68
2019-01-28T07:47:33.322Z,1005.65
2019-01-28T07:48:33.329Z,1005.67
2019-01-28T07:49:33.333Z,1005.67
2019-01-28T07:50:33.338Z,1005.74
2019-01-28T07:51:33.341Z,1005.77
2019-01-28T07:52:33.347Z,1005.61
2019-01-28T07:53:33.354Z,1005.66
2019-01-28T07:54:33.361Z,1005.66
2019-01-28T07:55:33.377Z,1005.57
2019-01-28T07:56:33.367Z,1005.63
2019-01-28T07:57:33.371Z,1005.57
2019-01-28T07:58:33.378Z,1005.61
2019-01-28T07:59:33.382Z,1005.64
2019-01-28T08:00:33.385Z,1005.61
2019-01-28T08:01:33.391Z,1005.57
2019-01-28T08:02:33.395Z,1005.55
2019-01-28T08:03:33.401Z,1005.53
2019-01-28T08:04:33.409Z,1005.55
2019-01-28T08:05:33.412Z,1005.48
2019-01-28T08:06:33.416Z,1005.51
2019-01-28T08:07:33.420Z,1005.47
2019-01-28T08:08:33.425Z,1005.45
2019-01-28T08:09:33.438Z,1005.51
2019-01-28T08:10:33.436Z,1005.45
2019-01-28T08:11:33.439Z,1005.37
2019-01-28T08:12:33.445Z,1005.43
2019-01-28T08:13:33.451Z,1005.49
2019-01-28T08:14:33.457Z,1005.47
2019-01-28T08:15:33.459Z,1005.43
2019-01-28T08:16:33.463Z,1005.44
2019-01-28T08:17:33.469Z,1005.47
2019-01-28T08:18:33.476Z,1005.42
2019-01-28T08:19:33.479Z,1005.38
2019-01-28T08:20:33.485Z,1005.41
2019-01-28T08:21:33.492Z,1005.49
2019-01-28T08:22:33.495Z,1005.37
2019-01-28T08:23:33.499Z,1005.38
2019-01-28T08:24:33.503Z,1005.28
2019-01-28T08:25:33.512Z,1005.24
2019-01-28T08:26:33.515Z,1005.31
2019-01-28T08:27:35.112Z,1005.22
2019-01-28T08:28:37.015Z,1005.20
2019-01-28T08:29:35.027Z,1005.18
2019-01-28T08:30:33.535Z,1005.15
2019-01-28T08:31:33.538Z,1005.14
2019-01-28T08:32:33.544Z,1005.21
2019-01-28T08:33:33.678Z,1005.23
2019-01-28T08:34:33.553Z,1005.22
2019-01-28T08:35:33.561Z,1005.24
2019-01-28T08:36:33.562Z,1005.17
2019-01-28T08:37:33.567Z,1005.20
2019-01-28T08:38:33.572Z,1005.03
2019-01-28T08:39:33.576Z,1005.12
2019-01-28T08:40:33.581Z,1005.02
2019-01-28T08:41:33.587Z,1005.02
2019-01-28T08:42:33.593Z,1005.01
2019-01-28T08:43:33.595Z,1005.04
2019-01-28T08:44:33.600Z,1005.00
2019-01-28T08:45:33.608Z,1005.09
2019-01-28T08:46:33.611Z,1005.00
2019-01-28T08:47:33.614Z,1004.92
2019-01-28T08:48:33.621Z,1005.04
2019-01-28T08:49:33.625Z,1004.98
2019-01-28T08:50:33.630Z,1004.96
2019-01-28T08:51:33.634Z,1004.91
2019-01-28T08:52:33.640Z,1004.86
2019-01-28T08:53:33.646Z,1004.84
2019-01-28T08:54:33.651Z,1004.91
2019-01-28T08:55:33.655Z,1004.84
2019-01-28T08:56:33.660Z,1004.84
2019-01-28T08:57:33.665Z,1004.90
2019-01-28T08:58:33.670Z,1005.04
2019-01-28T08:59:33.674Z,1004.84
2019-01-28T09:00:33.679Z,1004.81
2019-01-28T09:01:33.685Z,1004.85
2019-01-28T09:02:33.690Z,1004.89
2019-01-28T09:03:33.694Z,1004.81
2019-01-28T09:04:33.699Z,1004.82
2019-01-28T09:05:33.704Z,1004.81
2019-01-28T09:06:33.756Z,1004.85
2019-01-28T09:07:33.714Z,1004.89
2019-01-28T09:08:33.719Z,1004.91
2019-01-28T09:09:33.727Z,1004.86
2019-01-28T09:10:33.732Z,1004.97
2019-01-28T09:11:33.733Z,1004.88
2019-01-28T09:12:33.736Z,1004.86
2019-01-28T09:13:33.742Z,1004.87
2019-01-28T09:14:33.752Z,1004.88
2019-01-28T09:15:33.750Z,1004.90
2019-01-28T09:16:33.759Z,1004.89
2019-01-28T09:17:33.761Z,1004.91
2019-01-28T09:18:33.767Z,1004.94
2019-01-28T09:19:33.771Z,1004.91
2019-01-28T09:20:33.778Z,1004.87
2019-01-28T09:21:33.783Z,1004.88
2019-01-28T09:22:33.789Z,1004.88
2019-01-28T09:23:33.789Z,1004.85
2019-01-28T09:24:33.795Z,1004.86
2019-01-28T09:25:33.800Z,1004.82
2019-01-28T09:26:33.805Z,1004.91
2019-01-28T09:27:33.809Z,1004.82
2019-01-28T09:28:33.814Z,1004.82
2019-01-28T09:29:33.819Z,1004.81
2019-01-28T09:30:33.825Z,1004.79
2019-01-28T09:31:33.832Z,1004.72
2019-01-28T09:32:33.835Z,1004.74
2019-01-28T09:33:33.840Z,1004.76
2019-01-28T09:34:33.845Z,1004.70
2019-01-28T09:35:33.849Z,1004.56
2019-01-28T09:36:33.854Z,1004.66
2019-01-28T09:37:33.858Z,1004.52
2019-01-28T09:38:33.867Z,1004.60
2019-01-28T09:39:33.866Z,1004.51
2019-01-28T09:40:33.872Z,1004.65
2019-01-28T09:41:35.593Z,1004.53
2019-01-28T09:42:33.883Z,1004.56
2019-01-28T09:43:33.886Z,1004.52
2019-01-28T09:44:33.890Z,1004.43
2019-01-28T09:45:33.898Z,1004.53
2019-01-28T09:46:33.902Z,1004.49
2019-01-28T09:47:33.906Z,1004.54
2019-01-28T09:48:34.521Z,1004.45
2019-01-28T09:49:33.916Z,1004.45
2019-01-28T09:50:33.922Z,1004.41
2019-01-28T09:51:33.924Z,1004.42
2019-01-28T09:52:33.931Z,1004.40
2019-01-28T09:53:33.937Z,1004.34
2019-01-28T09:54:33.941Z,1004.37
2019-01-28T09:55:33.943Z,1004.39
2019-01-28T09:56:33.950Z,1004.27
2019-01-28T09:57:33.955Z,1004.28
2019-01-28T09:58:33.959Z,1004.20
2019-01-28T09:59:33.963Z,1004.42
2019-01-28T10:00:33.969Z,1004.14
2019-01-28T10:01:33.974Z,1004.24
2019-01-28T10:02:33.979Z,1004.23
2019-01-28T10:03:33.983Z,1004.28
2019-01-28T10:04:33.990Z,1004.20
2019-01-28T10:05:33.996Z,1004.26
2019-01-28T10:06:33.999Z,1004.20
2019-01-28T10:07:34.003Z,1004.15
2019-01-28T10:08:34.009Z,1004.31
2019-01-28T10:09:34.015Z,1004.23
2019-01-28T10:10:34.018Z,1004.24
2019-01-28T10:11:34.022Z,1004.09
2019-01-28T10:12:34.706Z,1004.25
2019-01-28T10:13:34.035Z,1004.14
2019-01-28T10:14:34.041Z,1004.16
2019-01-28T10:15:34.042Z,1004.11
2019-01-28T10:16:34.050Z,1004.13
2019-01-28T10:17:34.057Z,1004.12
2019-01-28T10:18:41.572Z,1004.12
2019-01-28T10:19:34.063Z,1003.93
2019-01-28T10:20:34.067Z,1003.91
2019-01-28T10:21:34.073Z,1003.87
2019-01-28T10:22:34.078Z,1003.91
2019-01-28T10:23:34.082Z,1003.83
2019-01-28T10:24:34.087Z,1003.77
2019-01-28T10:25:34.092Z,1003.73
2019-01-28T10:26:34.097Z,1003.79
2019-01-28T10:27:34.106Z,1003.82
2019-01-28T10:28:34.105Z,1003.82
2019-01-28T10:29:34.110Z,1003.85
2019-01-28T10:30:34.117Z,1003.80
2019-01-28T10:31:34.120Z,1003.88
2019-01-28T10:32:36.172Z,1003.78
2019-01-28T10:33:34.135Z,1003.76
2019-01-28T10:34:34.137Z,1003.65
2019-01-28T10:35:34.140Z,1003.67
2019-01-28T10:36:34.365Z,1003.64
2019-01-28T10:37:34.152Z,1003.69
2019-01-28T10:38:34.157Z,1003.55
2019-01-28T10:39:34.161Z,1003.61
2019-01-28T10:40:34.165Z,1003.57
2019-01-28T10:41:34.170Z,1003.58
2019-01-28T10:42:34.176Z,1003.53
2019-01-28T10:43:34.182Z,1003.56
2019-01-28T10:44:34.185Z,1003.54
2019-01-28T10:45:34.190Z,1003.57
2019-01-28T10:46:34.197Z,1003.52
2019-01-28T10:47:34.200Z,1003.46
2019-01-28T10:48:34.205Z,1003.46
2019-01-28T10:49:34.210Z,1003.41
2019-01-28T10:50:34.218Z,1003.42
2019-01-28T10:51:34.220Z,1003.44
2019-01-28T10:52:34.226Z,1003.58
2019-01-28T10:53:34.229Z,1003.55
2019-01-28T10:54:34.235Z,1003.59
2019-01-28T10:55:34.242Z,1003.61
2019-01-28T10:56:34.245Z,1003.59
2019-01-28T10:57:34.250Z,1003.57
2019-01-28T10:58:34.256Z,1003.48
2019-01-28T10:59:34.260Z,1003.55
2019-01-28T11:00:34.264Z,1003.45
2019-01-28T11:01:34.270Z,1003.44
2019-01-28T11:02:34.275Z,1003.51
2019-01-28T11:03:34.279Z,1003.48
2019-01-28T11:04:34.284Z,1003.33
2019-01-28T11:05:34.290Z,1003.33
2019-01-28T11:06:34.295Z,1003.30
2019-01-28T11:07:34.301Z,1003.30
2019-01-28T11:08:34.306Z,1003.30
2019-01-28T11:09:34.403Z,1003.30
2019-01-28T11:10:34.439Z,1003.23
2019-01-28T11:11:34.322Z,1003.25
2019-01-28T11:12:34.323Z,1003.28
2019-01-28T11:13:34.416Z,1003.23
2019-01-28T11:14:34.461Z,1003.19
2019-01-28T11:15:34.339Z,1003.26
2019-01-28T11:16:34.350Z,1003.17
2019-01-28T11:17:34.351Z,1003.13
2019-01-28T11:18:34.492Z,1003.10
2019-01-28T11:19:34.427Z,1003.06
2019-01-28T11:20:34.397Z,1003.00
2019-01-28T11:21:34.457Z,1003.04
2019-01-28T11:22:34.397Z,1002.98
2019-01-28T11:23:34.495Z,1003.01
2019-01-28T11:24:34.475Z,1003.04
2019-01-28T11:25:34.394Z,1003.07
2019-01-28T11:26:34.417Z,1003.01
2019-01-28T11:27:34.440Z,1003.15
2019-01-28T11:28:34.405Z,1003.05
2019-01-28T11:29:34.547Z,1003.07
2019-01-28T11:30:34.433Z,1003.00
2019-01-28T11:31:34.514Z,1003.13
2019-01-28T11:32:34.479Z,1003.05
2019-01-28T11:33:39.347Z,1003.10
2019-01-28T11:34:34.434Z,1003.02
2019-01-28T11:35:35.680Z,1002.98
2019-01-28T11:36:34.451Z,1003.02
2019-01-28T11:37:34.475Z,1003.02
2019-01-28T11:38:34.550Z,1002.97
2019-01-28T11:39:34.477Z,1003.02
2019-01-28T11:40:34.502Z,1003.12
2019-01-28T11:41:34.473Z,1003.03
2019-01-28T11:42:34.644Z,1002.95
2019-01-28T11:43:34.554Z,1003.01
2019-01-28T11:44:34.529Z,1002.97
2019-01-28T11:45:34.487Z,1003.01
2019-01-28T11:46:34.492Z,1003.05
2019-01-28T11:47:34.638Z,1002.92
2019-01-28T11:48:34.504Z,1002.87
2019-01-28T11:49:34.628Z,1002.85
2019-01-28T11:50:34.513Z,1002.87
2019-01-28T11:51:34.516Z,1002.88
2019-01-28T11:52:34.522Z,1002.78
2019-01-28T11:53:34.528Z,1002.84
2019-01-28T11:54:34.532Z,1002.73
2019-01-28T11:55:34.537Z,1002.81
2019-01-28T11:56:34.541Z,1002.68
2019-01-28T11:57:34.547Z,1002.65
2019-01-28T11:58:34.555Z,1002.78
2019-01-28T11:59:34.557Z,1002.78
2019-01-28T12:00:34.561Z,1002.74
2019-01-28T12:01:34.567Z,1002.72
2019-01-28T12:02:34.722Z,1002.77
2019-01-28T12:03:34.579Z,1002.77
2019-01-28T12:04:34.581Z,1002.80
2019-01-28T12:05:34.587Z,1002.86